Time;durP1;ratioP1;P1;durP2;ratioP2;P2;SDS_P1;SDS_P2;PMS_P1;PMS_P2;Temp;Humidity;BMP_temperature;BMP_pressure;BME280_temperature;BME280_humidity;BME280_pressure;Samples;Min_cycle;Max_cycle;Signal;HPM_P1;HPM_P2
2023/07/04 00:01:05;;;;;;;12.60;4.17;;;17.00;99.90;;;;;;5039753;28;20470;-51
2023/07/04 00:03:33;;;;;;;10.90;4.80;;;17.00;99.90;;;;;;5037822;28;20458;-51
2023/07/04 00:06:00;;;;;;;10.40;4.83;;;17.00;99.90;;;;;;5050808;28;20532;-53
2023/07/04 00:08:27;;;;;;;9.63;4.83;;;17.00;99.90;;;;;;5051426;28;20486;-52
2023/07/04 00:10:57;;;;;;;7.23;4.00;;;16.90;99.90;;;;;;5048397;28;20481;-52
2023/07/04 00:13:24;;;;;;;14.97;4.47;;;16.90;99.10;;;;;;5049102;28;20552;-51
2023/07/04 00:15:53;;;;;;;8.80;5.43;;;16.90;91.30;;;;;;5050295;28;20986;-51
2023/07/04 00:18:23;;;;;;;14.27;5.33;;;16.90;92.90;;;;;;5036769;28;20562;-51
2023/07/04 00:20:54;;;;;;;13.43;4.43;;;16.90;84.00;;;;;;5046182;28;20500;-52
2023/07/04 00:23:21;;;;;;;11.03;4.67;;;16.80;83.60;;;;;;5051286;28;20552;-52
2023/07/04 00:25:47;;;;;;;11.03;4.50;;;16.80;81.00;;;;;;5043410;28;20561;-51
2023/07/04 00:28:14;;;;;;;10.23;5.03;;;16.80;82.80;;;;;;5047753;28;20541;-51
2023/07/04 00:30:42;;;;;;;9.87;4.67;;;16.70;83.80;;;;;;5049276;28;20543;-51
2023/07/04 00:33:10;;;;;;;16.40;5.00;;;16.70;76.40;;;;;;5039710;28;20459;-51
2023/07/04 00:35:37;;;;;;;14.93;4.63;;;16.70;78.60;;;;;;5040261;28;20556;-50
2023/07/04 00:38:03;;;;;;;21.63;4.90;;;16.80;75.60;;;;;;5051215;28;20476;-51
2023/07/04 00:40:30;;;;;;;7.63;4.67;;;16.70;78.10;;;;;;5044192;28;20509;-51
2023/07/04 00:43:02;;;;;;;8.23;4.53;;;16.70;80.80;;;;;;5049978;28;20489;-51
2023/07/04 00:45:31;;;;;;;11.67;4.70;;;16.70;78.70;;;;;;5045040;28;20465;-51
2023/07/04 00:48:00;;;;;;;11.27;5.23;;;16.70;77.50;;;;;;5055198;28;20477;-51
2023/07/04 00:50:31;;;;;;;9.43;4.33;;;16.70;78.60;;;;;;5047234;28;20866;-51
2023/07/04 00:53:04;;;;;;;9.30;5.50;;;16.70;79.70;;;;;;5046166;28;20874;-53
2023/07/04 00:55:32;;;;;;;13.50;4.70;;;16.70;87.00;;;;;;5045401;28;20457;-52
2023/07/04 00:58:04;;;;;;;10.23;4.57;;;16.70;82.00;;;;;;5055044;28;20489;-51
2023/07/04 01:00:32;;;;;;;10.70;5.00;;;16.70;93.30;;;;;;5048290;28;20555;-51
2023/07/04 01:03:02;;;;;;;11.93;5.07;;;16.80;96.60;;;;;;5052385;28;20549;-51
2023/07/04 01:05:39;;;;;;;21.60;4.70;;;16.80;97.50;;;;;;5051925;28;20488;-51
2023/07/04 01:08:11;;;;;;;21.60;5.20;;;16.80;99.90;;;;;;5044659;28;20464;-51
2023/07/04 01:10:42;;;;;;;22.13;5.80;;;16.90;99.90;;;;;;5044131;28;20493;-51
2023/07/04 01:13:33;;;;;;;13.60;4.70;;;16.90;99.90;;;;;;5051923;28;20461;-52
2023/07/04 01:16:00;;;;;;;12.50;5.20;;;16.90;99.90;;;;;;5043889;28;20463;-51
2023/07/04 01:18:27;;;;;;;14.37;4.40;;;16.90;99.90;;;;;;5050633;28;20481;-51
2023/07/04 01:20:55;;;;;;;17.40;5.47;;;16.90;99.90;;;;;;5052957;28;20470;-51
2023/07/04 01:23:32;;;;;;;13.83;4.97;;;16.90;99.90;;;;;;5051956;28;20462;-51
2023/07/04 01:26:14;;;;;;;12.90;5.30;;;16.90;99.90;;;;;;5049778;28;20497;-50
2023/07/04 01:28:41;;;;;;;9.40;4.87;;;17.00;99.90;;;;;;5053143;28;20488;-51
2023/07/04 01:31:08;;;;;;;16.00;5.20;;;17.00;99.90;;;;;;5054002;28;20485;-51
2023/07/04 01:33:35;;;;;;;8.77;4.60;;;17.00;99.90;;;;;;5052738;28;20496;-51
2023/07/04 01:36:02;;;;;;;20.03;5.13;;;17.10;99.90;;;;;;5052189;28;20497;-51
2023/07/04 01:38:30;;;;;;;10.37;4.80;;;17.10;99.90;;;;;;5053059;28;20489;-51
2023/07/04 01:40:57;;;;;;;22.70;5.50;;;17.10;99.90;;;;;;5050020;28;20499;-51
2023/07/04 01:43:25;;;;;;;13.00;4.80;;;17.10;99.90;;;;;;5054125;28;20497;-52
2023/07/04 01:45:51;;;;;;;11.13;4.70;;;17.10;99.90;;;;;;5054763;28;20478;-51
2023/07/04 01:48:18;;;;;;;7.10;5.00;;;17.10;99.90;;;;;;5053838;28;20481;-51
2023/07/04 01:50:45;;;;;;;11.20;4.90;;;17.10;99.90;;;;;;5052108;28;20493;-51
2023/07/04 01:53:11;;;;;;;8.53;4.67;;;17.10;99.90;;;;;;5051858;28;20465;-51
2023/07/04 01:55:38;;;;;;;10.63;5.03;;;17.10;99.90;;;;;;5051196;28;20461;-51
2023/07/04 01:58:04;;;;;;;20.97;6.00;;;17.10;99.90;;;;;;5040728;28;20498;-52
2023/07/04 02:00:32;;;;;;;17.20;5.07;;;17.10;99.90;;;;;;5047170;28;20913;-52
2023/07/04 02:02:59;;;;;;;9.77;4.47;;;17.20;99.90;;;;;;5053582;28;20993;-51
2023/07/04 02:05:27;;;;;;;11.67;4.80;;;17.20;99.90;;;;;;5051210;28;20469;-51
2023/07/04 02:07:53;;;;;;;12.57;5.20;;;17.20;99.90;;;;;;5052240;28;20579;-51
2023/07/04 02:10:20;;;;;;;10.53;5.73;;;17.30;99.90;;;;;;5065335;23;20595;-55
2023/07/04 02:12:46;;;;;;;10.10;5.23;;;17.30;99.90;;;;;;5042774;28;20498;-55
2023/07/04 02:15:13;;;;;;;11.17;5.80;;;17.40;99.90;;;;;;5046295;28;20556;-54
2023/07/04 02:17:41;;;;;;;9.73;4.70;;;17.40;99.90;;;;;;5044016;28;20549;-54
2023/07/04 02:20:08;;;;;;;8.60;4.83;;;17.30;99.90;;;;;;5052205;28;20481;-53
2023/07/04 02:22:35;;;;;;;13.27;5.43;;;17.40;99.90;;;;;;5046778;28;21301;-54
2023/07/04 02:25:03;;;;;;;7.97;5.10;;;17.30;99.90;;;;;;5052184;28;20497;-54
2023/07/04 02:27:29;;;;;;;9.37;5.37;;;17.40;99.90;;;;;;5051245;28;20873;-55
2023/07/04 02:29:56;;;;;;;15.33;5.60;;;17.40;99.90;;;;;;5053224;28;20507;-55
2023/07/04 02:32:22;;;;;;;15.77;5.57;;;17.30;99.90;;;;;;5046308;28;20494;-54
2023/07/04 02:34:50;;;;;;;9.50;5.27;;;17.30;99.90;;;;;;5046983;28;20958;-53
2023/07/04 02:37:17;;;;;;;9.47;5.57;;;17.30;99.90;;;;;;5052714;28;20494;-54
2023/07/04 02:39:44;;;;;;;12.70;5.20;;;17.30;99.90;;;;;;5045722;28;20506;-53
2023/07/04 02:42:12;;;;;;;17.20;5.43;;;17.30;99.90;;;;;;5042136;28;20454;-54
2023/07/04 02:44:38;;;;;;;18.07;5.33;;;17.30;99.90;;;;;;5042372;28;20548;-55
2023/07/04 02:47:05;;;;;;;15.23;6.40;;;17.20;99.90;;;;;;5052315;28;20493;-55
2023/07/04 02:49:35;;;;;;;14.90;6.40;;;17.20;99.90;;;;;;5051964;28;20475;-54
2023/07/04 02:52:03;;;;;;;11.27;6.07;;;17.20;99.90;;;;;;5051967;28;20834;-54
2023/07/04 02:54:29;;;;;;;9.80;5.13;;;17.10;99.90;;;;;;5043001;28;20494;-55
2023/07/04 02:56:56;;;;;;;14.07;5.10;;;17.10;99.90;;;;;;5046405;28;20501;-54
2023/07/04 02:59:22;;;;;;;15.70;5.97;;;17.10;99.90;;;;;;5052919;28;20476;-54
2023/07/04 03:01:51;;;;;;;10.30;4.93;;;17.10;99.90;;;;;;5051981;28;20488;-55
2023/07/04 03:04:17;;;;;;;11.27;5.90;;;17.10;99.90;;;;;;5052698;28;20935;-55
2023/07/04 03:06:44;;;;;;;13.23;6.33;;;17.10;99.90;;;;;;5052106;28;21002;-54
2023/07/04 03:09:12;;;;;;;14.00;6.27;;;17.10;99.90;;;;;;5047629;28;20495;-54
2023/07/04 03:11:38;;;;;;;10.07;5.47;;;17.00;99.90;;;;;;5034725;28;20481;-54
2023/07/04 03:14:05;;;;;;;8.30;5.60;;;17.00;99.90;;;;;;5052500;28;20469;-54
2023/07/04 03:16:31;;;;;;;18.03;5.77;;;17.00;99.90;;;;;;5052180;28;20497;-55
2023/07/04 03:18:58;;;;;;;9.33;5.73;;;17.00;99.90;;;;;;5052464;28;20481;-55
2023/07/04 03:21:24;;;;;;;12.90;5.57;;;16.90;99.90;;;;;;5052249;28;20905;-55
2023/07/04 03:23:51;;;;;;;12.50;5.83;;;16.90;99.90;;;;;;5049822;28;20470;-55
2023/07/04 03:26:20;;;;;;;14.70;5.30;;;16.90;99.90;;;;;;5045059;28;20451;-55
2023/07/04 03:28:46;;;;;;;13.03;5.60;;;17.00;99.90;;;;;;5041396;28;20462;-54
2023/07/04 03:31:13;;;;;;;17.60;6.37;;;16.90;99.90;;;;;;5043831;28;20510;-54
2023/07/04 03:33:39;;;;;;;19.80;5.87;;;16.90;99.90;;;;;;5051742;28;20516;-55
2023/07/04 03:36:06;;;;;;;18.30;6.40;;;16.90;99.90;;;;;;5050599;28;21412;-55
2023/07/04 03:38:33;;;;;;;18.10;6.53;;;16.90;99.90;;;;;;5050012;28;20465;-54
2023/07/04 03:41:00;;;;;;;22.30;6.20;;;16.90;99.90;;;;;;5049437;28;20513;-54
2023/07/04 03:43:27;;;;;;;12.93;5.67;;;16.90;99.90;;;;;;5042435;28;20952;-55
2023/07/04 03:45:54;;;;;;;12.13;5.90;;;16.90;99.90;;;;;;5047022;28;20466;-54
2023/07/04 03:48:21;;;;;;;10.80;5.50;;;16.80;99.90;;;;;;5047880;28;21179;-54
2023/07/04 03:50:47;;;;;;;12.63;5.80;;;16.80;99.90;;;;;;5042343;28;20493;-55
2023/07/04 03:53:14;;;;;;;19.73;5.83;;;16.80;99.90;;;;;;5050157;28;20497;-55
2023/07/04 03:55:41;;;;;;;8.43;5.27;;;16.70;99.90;;;;;;5049105;28;20489;-55
2023/07/04 03:58:07;;;;;;;10.07;5.73;;;16.80;99.90;;;;;;5039729;28;20487;-55
2023/07/04 04:00:35;;;;;;;12.97;5.53;;;16.70;99.90;;;;;;5048381;28;20509;-55
2023/07/04 04:03:02;;;;;;;13.27;5.53;;;16.70;99.90;;;;;;5048950;28;20497;-55
2023/07/04 04:05:29;;;;;;;12.23;4.97;;;16.70;99.90;;;;;;5049966;28;20898;-55
2023/07/04 04:07:56;;;;;;;8.90;5.13;;;16.80;99.90;;;;;;5044977;28;20554;-55
2023/07/04 04:10:22;;;;;;;18.63;5.97;;;16.70;99.90;;;;;;5047803;28;21026;-56
2023/07/04 04:12:49;;;;;;;17.83;4.73;;;16.70;99.90;;;;;;5044344;28;20481;-55
2023/07/04 04:15:15;;;;;;;10.77;4.93;;;16.80;99.90;;;;;;5039697;28;20485;-55
2023/07/04 04:17:43;;;;;;;10.63;5.20;;;16.80;99.90;;;;;;5049191;28;20497;-55
2023/07/04 04:20:11;;;;;;;13.27;4.70;;;16.80;99.90;;;;;;5049994;28;20516;-54
2023/07/04 04:22:39;;;;;;;10.77;5.10;;;16.80;99.90;;;;;;5046319;28;20485;-55
2023/07/04 04:25:07;;;;;;;11.83;5.17;;;16.90;99.90;;;;;;5049093;28;20457;-54
2023/07/04 04:27:35;;;;;;;16.93;5.10;;;16.90;99.90;;;;;;5041137;28;20501;-55
2023/07/04 04:30:05;;;;;;;13.43;5.60;;;16.90;99.90;;;;;;5041369;28;20983;-53
2023/07/04 04:32:32;;;;;;;11.67;5.53;;;16.90;99.90;;;;;;5043000;28;20571;-55
2023/07/04 04:35:00;;;;;;;13.10;4.73;;;16.90;99.90;;;;;;5040293;28;20516;-54
2023/07/04 04:37:26;;;;;;;12.83;5.53;;;16.90;99.90;;;;;;5048518;28;20920;-55
2023/07/04 04:39:53;;;;;;;14.20;5.17;;;16.90;99.90;;;;;;5047655;28;20516;-55
2023/07/04 04:42:23;;;;;;;16.60;5.50;;;16.90;99.90;;;;;;5046186;28;20496;-55
2023/07/04 04:44:53;;;;;;;20.70;6.73;;;17.00;99.90;;;;;;5049685;28;20520;-55
2023/07/04 04:47:23;;;;;;;13.40;6.13;;;17.00;99.90;;;;;;5050306;28;20458;-55
2023/07/04 04:49:50;;;;;;;9.60;5.20;;;17.10;99.90;;;;;;5045363;28;20478;-55
2023/07/04 04:52:19;;;;;;;14.97;5.30;;;17.20;99.90;;;;;;5045510;28;20488;-54
2023/07/04 04:54:47;;;;;;;15.93;5.40;;;17.20;99.90;;;;;;5032114;28;20459;-54
2023/07/04 04:57:14;;;;;;;18.70;6.93;;;17.20;99.90;;;;;;5047619;28;20460;-55
2023/07/04 04:59:41;;;;;;;10.80;5.20;;;17.00;99.90;;;;;;5050220;28;20497;-55
2023/07/04 05:02:09;;;;;;;9.27;5.23;;;16.90;99.90;;;;;;5048990;28;20825;-56
2023/07/04 05:04:35;;;;;;;14.90;5.30;;;16.90;99.00;;;;;;5041843;28;20840;-55
2023/07/04 05:07:02;;;;;;;12.17;4.80;;;16.80;94.40;;;;;;5042368;28;21037;-56
2023/07/04 05:09:32;;;;;;;14.17;5.87;;;16.70;87.60;;;;;;5048352;28;20467;-54
2023/07/04 05:11:59;;;;;;;14.13;6.00;;;16.70;85.70;;;;;;5050705;28;20524;-55
2023/07/04 05:14:25;;;;;;;14.13;4.90;;;16.60;83.90;;;;;;5050118;28;20500;-55
2023/07/04 05:16:52;;;;;;;15.20;5.83;;;16.60;81.70;;;;;;5048324;28;20944;-55
2023/07/04 05:19:19;;;;;;;12.20;4.50;;;16.60;77.00;;;;;;5047669;28;20489;-54
2023/07/04 05:21:48;;;;;;;8.17;4.40;;;16.60;75.50;;;;;;5044466;28;20958;-56
2023/07/04 05:24:14;;;;;;;7.40;4.40;;;16.60;74.80;;;;;;5041523;28;20974;-54
2023/07/04 05:26:42;;;;;;;9.40;4.80;;;16.50;71.90;;;;;;5038310;28;20458;-55
2023/07/04 05:29:09;;;;;;;7.00;3.40;;;16.60;72.30;;;;;;5047157;28;20489;-54
2023/07/04 05:31:35;;;;;;;11.57;4.07;;;16.60;75.60;;;;;;5043912;28;20510;-55
2023/07/04 05:34:02;;;;;;;7.33;3.63;;;16.80;77.40;;;;;;5048534;28;20544;-55
2023/07/04 05:36:30;;;;;;;5.60;3.67;;;16.80;88.90;;;;;;5054044;28;20493;-55
2023/07/04 05:38:59;;;;;;;10.07;3.33;;;16.90;97.70;;;;;;5051228;28;20454;-55
2023/07/04 05:41:27;;;;;;;13.47;3.00;;;16.90;99.90;;;;;;5043156;28;20475;-54
2023/07/04 05:43:57;;;;;;;8.60;2.73;;;16.90;99.90;;;;;;5042490;28;21033;-54
2023/07/04 05:46:23;;;;;;;6.67;2.43;;;16.90;99.90;;;;;;5050089;28;20494;-53
2023/07/04 05:48:50;;;;;;;6.93;3.27;;;16.80;99.90;;;;;;5049846;28;21014;-55
2023/07/04 05:51:18;;;;;;;5.60;2.43;;;16.60;99.90;;;;;;5049773;28;20524;-54
2023/07/04 05:53:48;;;;;;;6.73;2.70;;;16.60;99.90;;;;;;5051700;28;20497;-55
2023/07/04 05:56:16;;;;;;;8.97;3.30;;;16.60;99.90;;;;;;5044403;28;20492;-53
2023/07/04 05:58:46;;;;;;;7.93;2.40;;;16.60;98.10;;;;;;5043768;28;21017;-55
2023/07/04 06:01:17;;;;;;;5.23;2.60;;;16.60;96.60;;;;;;5044751;28;20606;-55
2023/07/04 06:03:44;;;;;;;7.90;2.80;;;16.70;99.90;;;;;;5047807;28;20498;-53
2023/07/04 06:06:17;;;;;;;3.53;2.30;;;16.70;97.50;;;;;;5047175;28;20461;-55
2023/07/04 06:08:44;;;;;;;8.53;3.30;;;16.70;95.70;;;;;;5047225;28;20836;-55
2023/07/04 06:11:11;;;;;;;3.67;2.50;;;16.70;98.40;;;;;;5050019;28;20513;-55
2023/07/04 06:13:37;;;;;;;3.97;2.27;;;16.70;99.20;;;;;;5051585;28;20486;-56
2023/07/04 06:16:05;;;;;;;5.93;2.70;;;16.70;99.50;;;;;;5051148;28;20477;-54
2023/07/04 06:18:33;;;;;;;9.40;2.57;;;16.70;97.70;;;;;;5049810;28;20905;-56
2023/07/04 06:21:07;;;;;;;9.23;2.63;;;16.60;90.30;;;;;;5052244;28;20509;-55
2023/07/04 06:23:33;;;;;;;5.40;2.37;;;16.70;93.90;;;;;;5053788;28;20480;-54
2023/07/04 06:26:00;;;;;;;5.40;2.87;;;16.70;93.30;;;;;;5051852;28;20540;-56
2023/07/04 06:28:27;;;;;;;5.40;2.23;;;16.70;93.50;;;;;;5050171;28;20493;-54
2023/07/04 06:30:53;;;;;;;4.83;2.37;;;16.70;94.60;;;;;;5049666;28;20924;-56
2023/07/04 06:33:20;;;;;;;8.83;2.50;;;16.70;93.80;;;;;;5053767;28;20513;-53
2023/07/04 06:35:48;;;;;;;6.90;2.37;;;16.80;92.70;;;;;;5042998;28;20538;-55
2023/07/04 06:38:15;;;;;;;7.33;2.70;;;16.80;99.90;;;;;;5047748;28;20876;-54
2023/07/04 06:40:42;;;;;;;5.00;2.30;;;16.90;99.90;;;;;;5047634;28;20569;-55
2023/07/04 06:43:08;;;;;;;2.37;1.77;;;17.00;99.90;;;;;;5051597;28;20477;-55
2023/07/04 06:45:35;;;;;;;4.87;2.40;;;17.10;99.90;;;;;;5050612;28;20461;-55
2023/07/04 06:48:02;;;;;;;7.97;2.40;;;17.20;99.90;;;;;;5053320;28;20452;-55
2023/07/04 06:50:29;;;;;;;7.23;2.23;;;17.30;99.90;;;;;;5053027;28;20493;-55
2023/07/04 06:52:57;;;;;;;4.20;1.63;;;17.40;99.90;;;;;;5047571;28;20478;-56
2023/07/04 06:55:23;;;;;;;4.03;2.00;;;17.40;99.90;;;;;;5043409;28;20497;-53
2023/07/04 06:57:50;;;;;;;2.40;1.47;;;17.40;99.90;;;;;;5043892;28;20456;-56
2023/07/04 07:00:17;;;;;;;6.90;1.90;;;17.40;99.90;;;;;;5051650;28;20530;-56
2023/07/04 07:02:48;;;;;;;7.60;1.73;;;17.50;99.90;;;;;;5048982;28;20496;-55
2023/07/04 07:05:14;;;;;;;9.97;2.30;;;17.50;99.90;;;;;;5044601;28;20886;-55
2023/07/04 07:07:41;;;;;;;8.33;1.70;;;17.50;99.90;;;;;;5050944;28;20523;-55
2023/07/04 07:10:10;;;;;;;3.97;2.40;;;17.50;99.90;;;;;;5044282;28;20529;-54
2023/07/04 07:12:37;;;;;;;1.93;1.33;;;17.60;99.90;;;;;;5043402;28;20832;-56
2023/07/04 07:15:04;;;;;;;2.30;1.43;;;17.60;99.90;;;;;;5049628;28;20491;-55
2023/07/04 07:17:33;;;;;;;7.40;1.90;;;17.60;99.90;;;;;;5050987;28;20971;-56
2023/07/04 07:19:59;;;;;;;3.70;1.60;;;17.60;99.90;;;;;;5051999;28;20520;-56
2023/07/04 07:22:26;;;;;;;2.30;1.10;;;17.60;99.90;;;;;;5052007;28;20450;-54
2023/07/04 07:24:52;;;;;;;2.63;1.50;;;17.70;99.90;;;;;;5049983;28;20890;-55
2023/07/04 07:27:20;;;;;;;4.87;2.03;;;17.80;99.90;;;;;;5049986;28;20489;-54
2023/07/04 07:29:48;;;;;;;5.47;1.73;;;17.90;99.90;;;;;;5043393;28;20979;-53
2023/07/04 07:32:14;;;;;;;6.10;2.57;;;18.00;99.90;;;;;;5050232;28;20535;-54
2023/07/04 07:34:41;;;;;;;2.80;1.50;;;18.00;99.90;;;;;;5041991;28;20861;-54
2023/07/04 07:37:08;;;;;;;3.40;1.70;;;18.10;99.90;;;;;;5050017;28;20466;-53
2023/07/04 07:39:35;;;;;;;3.10;1.20;;;18.20;99.90;;;;;;5056010;28;21135;-53
2023/07/04 07:42:01;;;;;;;3.07;1.50;;;18.20;99.90;;;;;;5049841;28;20489;-55
2023/07/04 07:44:29;;;;;;;3.17;1.63;;;18.20;99.90;;;;;;5048399;28;20497;-54
2023/07/04 07:46:56;;;;;;;12.27;1.40;;;18.20;99.90;;;;;;5054229;28;20434;-53
2023/07/04 07:49:23;;;;;;;3.63;1.93;;;18.10;99.90;;;;;;5047685;28;20891;-54
2023/07/04 07:51:49;;;;;;;10.00;2.00;;;18.10;99.90;;;;;;5053329;28;20481;-54
2023/07/04 07:54:16;;;;;;;6.53;1.87;;;18.10;99.90;;;;;;5044707;28;20489;-55
2023/07/04 07:56:45;;;;;;;8.23;1.90;;;18.20;99.90;;;;;;5056294;28;20469;-54
2023/07/04 07:59:12;;;;;;;6.47;2.00;;;18.30;99.90;;;;;;5047563;28;20512;-58
2023/07/04 08:01:40;;;;;;;5.77;2.13;;;18.30;99.90;;;;;;5040045;28;20576;-56
2023/07/04 08:04:07;;;;;;;5.40;1.90;;;18.30;99.90;;;;;;5037780;28;20478;-56
2023/07/04 08:06:37;;;;;;;6.40;2.13;;;18.30;99.90;;;;;;5029846;28;20527;-56
2023/07/04 08:09:05;;;;;;;4.93;1.97;;;18.30;99.90;;;;;;5044698;28;20498;-55
2023/07/04 08:11:33;;;;;;;13.60;2.10;;;18.20;99.90;;;;;;5046764;28;21160;-55
2023/07/04 08:14:00;;;;;;;2.83;1.80;;;18.20;99.90;;;;;;5046672;28;20581;-54
2023/07/04 08:16:30;;;;;;;5.43;1.70;;;18.30;99.90;;;;;;5044076;28;20549;-53
2023/07/04 08:18:59;;;;;;;2.40;1.77;;;18.50;99.90;;;;;;5047364;28;20909;-53
2023/07/04 08:21:28;;;;;;;8.97;2.10;;;18.70;99.90;;;;;;5048652;28;20509;-54
2023/07/04 08:23:54;;;;;;;5.30;2.40;;;19.00;99.90;;;;;;5046173;28;21022;-54
2023/07/04 08:26:23;;;;;;;4.13;1.70;;;19.20;99.90;;;;;;5037849;28;20971;-54
2023/07/04 08:28:50;;;;;;;11.10;2.17;;;19.20;99.90;;;;;;5042856;28;20527;-54
2023/07/04 08:31:18;;;;;;;5.70;2.37;;;19.10;99.90;;;;;;5043705;28;20589;-56
2023/07/04 08:33:44;;;;;;;6.60;1.80;;;18.90;99.90;;;;;;5047580;28;20529;-53
2023/07/04 08:36:12;;;;;;;3.10;1.43;;;18.60;99.90;;;;;;5041615;28;20497;-53
2023/07/04 08:38:39;;;;;;;8.47;2.20;;;18.60;99.90;;;;;;5045960;28;20485;-55
2023/07/04 08:41:20;;;;;;;7.97;2.90;;;18.80;99.90;;;;;;5044433;28;21090;-54
2023/07/04 08:43:52;;;;;;;4.00;2.07;;;18.90;99.90;;;;;;5048915;28;20972;-53
2023/07/04 08:46:20;;;;;;;14.30;2.17;;;18.90;99.90;;;;;;5049745;28;20486;-53
2023/07/04 08:48:47;;;;;;;9.47;1.80;;;18.80;99.90;;;;;;5050373;28;20494;-54
2023/07/04 08:51:18;;;;;;;6.03;2.50;;;18.80;99.90;;;;;;5048862;28;20483;-54
2023/07/04 08:53:51;;;;;;;3.33;1.50;;;19.00;99.90;;;;;;5045771;28;20489;-54
2023/07/04 08:56:28;;;;;;;5.60;1.83;;;19.10;99.90;;;;;;5045128;28;20455;-55
2023/07/04 08:59:01;;;;;;;6.10;2.60;;;19.20;99.90;;;;;;5044599;28;20492;-54
2023/07/04 09:01:38;;;;;;;5.50;2.37;;;19.50;99.90;;;;;;5039060;28;20942;-55
2023/07/04 09:04:11;;;;;;;14.93;2.33;;;19.70;99.90;;;;;;5033634;28;20532;-55
2023/07/04 09:06:45;;;;;;;8.27;2.60;;;19.50;99.90;;;;;;5041774;28;20541;-56
2023/07/04 09:09:20;;;;;;;12.97;2.47;;;19.50;99.90;;;;;;5048676;28;20493;-55
2023/07/04 09:11:49;;;;;;;4.50;1.57;;;19.70;99.90;;;;;;5050852;28;20538;-54
2023/07/04 09:14:19;;;;;;;11.73;2.50;;;19.90;99.90;;;;;;5054871;28;20895;-53
2023/07/04 09:16:48;;;;;;;6.93;2.30;;;20.00;99.90;;;;;;5051379;28;20818;-55
2023/07/04 09:19:18;;;;;;;5.03;1.90;;;20.20;99.90;;;;;;5045129;28;20462;-53
2023/07/04 09:21:46;;;;;;;5.37;2.70;;;20.30;99.90;;;;;;5047981;28;20505;-54
2023/07/04 09:24:13;;;;;;;6.27;2.07;;;20.00;99.90;;;;;;5045726;28;20556;-54
2023/07/04 09:26:44;;;;;;;8.27;2.30;;;20.00;99.90;;;;;;5051759;28;21001;-54
2023/07/04 09:29:12;;;;;;;3.17;1.53;;;20.00;99.90;;;;;;5053205;28;20458;-55
2023/07/04 09:31:41;;;;;;;3.63;1.60;;;20.50;99.90;;;;;;5045713;28;20520;-56
2023/07/04 09:34:14;;;;;;;11.23;2.03;;;20.50;99.90;;;;;;5054509;28;21017;-54
2023/07/04 09:36:40;;;;;;;4.73;1.80;;;20.70;99.90;;;;;;5052399;28;20554;-55
2023/07/04 09:39:09;;;;;;;4.23;2.10;;;20.30;99.90;;;;;;5050109;28;20477;-55
2023/07/04 09:41:39;;;;;;;5.00;2.10;;;20.60;99.90;;;;;;5047489;28;20482;-55
2023/07/04 09:44:14;;;;;;;2.60;1.23;;;20.50;99.90;;;;;;5045791;28;20446;-53
2023/07/04 09:46:46;;;;;;;7.43;1.93;;;20.60;99.90;;;;;;5049158;28;20473;-54
2023/07/04 09:49:21;;;;;;;4.90;2.10;;;20.70;99.90;;;;;;5046221;28;20469;-53
2023/07/04 09:51:58;;;;;;;4.83;2.10;;;20.60;99.90;;;;;;5053809;28;20522;-53
2023/07/04 09:54:27;;;;;;;7.57;2.03;;;20.20;99.90;;;;;;5045875;28;20496;-54
2023/07/04 09:56:53;;;;;;;7.10;2.37;;;20.00;99.90;;;;;;5043434;28;20498;-54
2023/07/04 09:59:24;;;;;;;5.13;1.93;;;20.60;99.90;;;;;;5039861;28;20968;-54
2023/07/04 10:01:52;;;;;;;11.97;2.07;;;21.00;99.90;;;;;;5045777;28;20466;-54
2023/07/04 10:04:27;;;;;;;16.27;2.20;;;21.00;99.90;;;;;;5049214;28;20513;-56
2023/07/04 10:06:55;;;;;;;4.10;1.57;;;20.80;99.90;;;;;;5052043;28;20501;-54
2023/07/04 10:09:22;;;;;;;4.87;1.93;;;20.80;99.90;;;;;;5050922;28;21170;-54
2023/07/04 10:11:52;;;;;;;4.23;1.47;;;20.80;99.90;;;;;;5046681;28;20486;-55
2023/07/04 10:14:33;;;;;;;7.47;2.10;;;20.90;99.90;;;;;;5046439;28;20521;-54
2023/07/04 10:17:09;;;;;;;3.23;1.97;;;20.90;99.90;;;;;;5049121;28;20511;-55
2023/07/04 10:19:41;;;;;;;6.43;1.67;;;21.10;99.90;;;;;;5049781;28;20500;-54
2023/07/04 10:22:07;;;;;;;7.23;1.90;;;21.00;99.90;;;;;;5051627;28;20464;-55
2023/07/04 10:24:34;;;;;;;2.30;1.80;;;21.10;99.90;;;;;;5051032;28;20469;-54
2023/07/04 10:27:05;;;;;;;3.23;1.70;;;21.10;99.90;;;;;;5049919;28;20543;-54
2023/07/04 10:29:36;;;;;;;4.47;1.83;;;20.80;99.90;;;;;;5051378;28;20458;-55
2023/07/04 10:32:07;;;;;;;6.00;2.00;;;20.60;99.90;;;;;;5046544;28;20501;-54
2023/07/04 10:34:35;;;;;;;6.60;1.53;;;20.50;99.90;;;;;;5043265;28;21064;-54
2023/07/04 10:37:03;;;;;;;9.03;2.10;;;20.40;99.90;;;;;;5048585;28;20498;-55
2023/07/04 10:39:30;;;;;;;3.33;1.70;;;20.30;99.90;;;;;;5043257;28;20557;-54
2023/07/04 10:42:01;;;;;;;4.67;1.80;;;20.10;99.90;;;;;;5049300;28;20473;-55
2023/07/04 10:44:33;;;;;;;3.37;1.70;;;19.90;99.90;;;;;;5049393;28;20486;-55
2023/07/04 10:47:04;;;;;;;3.53;1.57;;;19.80;99.90;;;;;;5049731;28;20485;-54
2023/07/04 10:49:37;;;;;;;9.03;1.97;;;19.80;99.90;;;;;;5042925;28;20573;-54
2023/07/04 10:52:09;;;;;;;5.33;2.27;;;19.90;99.90;;;;;;5043001;28;20489;-56
2023/07/04 10:54:35;;;;;;;4.47;2.40;;;20.20;99.90;;;;;;5047543;28;20926;-55
2023/07/04 10:57:09;;;;;;;2.50;1.40;;;21.00;99.90;;;;;;5038419;28;20972;-54
2023/07/04 10:59:41;;;;;;;12.23;1.87;;;21.60;99.90;;;;;;5047307;28;20489;-56
2023/07/04 11:02:13;;;;;;;11.87;2.00;;;21.80;99.90;;;;;;5046089;28;20481;-56
2023/07/04 11:04:41;;;;;;;5.27;1.77;;;21.50;99.90;;;;;;5048956;28;20458;-55
2023/07/04 11:07:17;;;;;;;11.23;3.60;;;21.60;99.90;;;;;;5042784;28;20557;-56
2023/07/04 11:09:43;;;;;;;6.60;3.03;;;21.70;99.90;;;;;;5045221;28;20465;-54
2023/07/04 11:12:16;;;;;;;10.23;4.30;;;21.40;99.90;;;;;;5047274;28;20490;-55
2023/07/04 11:14:46;;;;;;;6.40;2.53;;;21.60;99.90;;;;;;5040109;28;20573;-54
2023/07/04 11:17:18;;;;;;;10.97;3.37;;;21.60;99.90;;;;;;5048433;28;20493;-54
2023/07/04 11:19:57;;;;;;;7.33;2.60;;;21.60;99.90;;;;;;5048312;28;20484;-55
2023/07/04 11:22:43;;;;;;;9.03;2.17;;;21.30;99.90;;;;;;5045141;28;20540;-55
2023/07/04 11:25:29;;;;;;;3.20;2.63;;;21.10;99.90;;;;;;5050048;28;20453;-54
2023/07/04 11:28:19;;;;;;;4.63;2.50;;;20.80;99.90;;;;;;5046472;28;20451;-55
2023/07/04 11:30:49;;;;;;;6.03;2.37;;;20.50;99.90;;;;;;5039269;28;20497;-53
2023/07/04 11:33:39;;;;;;;7.63;2.20;;;20.50;99.90;;;;;;5050661;28;20646;-54
2023/07/04 11:36:07;;;;;;;7.77;2.33;;;20.40;99.90;;;;;;5043353;28;20524;-56
2023/07/04 11:38:36;;;;;;;12.63;3.30;;;20.30;99.90;;;;;;5043627;28;20981;-54
2023/07/04 11:41:03;;;;;;;8.27;2.33;;;20.10;99.90;;;;;;5047533;28;20529;-55
2023/07/04 11:43:35;;;;;;;28.87;4.80;;;20.10;99.90;;;;;;5043303;28;20468;-54
2023/07/04 11:46:04;;;;;;;8.90;3.03;;;20.10;99.90;;;;;;5049634;28;20490;-56
2023/07/04 11:48:34;;;;;;;4.97;2.27;;;20.20;99.90;;;;;;5049280;28;20494;-54
2023/07/04 11:51:05;;;;;;;6.03;2.33;;;20.30;99.90;;;;;;5046117;28;20508;-54
2023/07/04 11:53:39;;;;;;;7.90;2.70;;;20.50;99.90;;;;;;5046191;28;20485;-56
2023/07/04 11:56:15;;;;;;;5.93;2.70;;;20.70;99.90;;;;;;5050776;28;20461;-54
2023/07/04 11:58:42;;;;;;;6.67;2.50;;;20.70;99.90;;;;;;5048236;28;20462;-55
2023/07/04 12:01:12;;;;;;;8.87;3.03;;;20.70;99.90;;;;;;5048194;28;20509;-53
2023/07/04 12:04:05;;;;;;;12.67;3.10;;;20.70;99.90;;;;;;5050550;28;20454;-54
2023/07/04 12:06:56;;;;;;;6.13;2.53;;;20.50;99.90;;;;;;5047480;28;20462;-54
2023/07/04 12:09:29;;;;;;;6.00;2.40;;;20.40;99.90;;;;;;5047929;28;20462;-54
2023/07/04 12:11:58;;;;;;;12.60;3.33;;;20.40;99.90;;;;;;5042937;28;20470;-54
2023/07/04 12:14:25;;;;;;;5.53;2.80;;;20.60;99.90;;;;;;5050865;28;20513;-54
2023/07/04 12:16:57;;;;;;;5.37;2.63;;;20.70;99.90;;;;;;5049047;28;20886;-54
2023/07/04 12:19:24;;;;;;;4.50;2.13;;;20.80;99.90;;;;;;5045878;28;20541;-56
2023/07/04 12:21:52;;;;;;;12.23;2.23;;;20.90;99.90;;;;;;5045395;28;20496;-55
2023/07/04 12:24:21;;;;;;;10.93;3.00;;;20.70;99.90;;;;;;5047968;28;20453;-53
2023/07/04 12:26:54;;;;;;;10.03;2.80;;;20.50;99.90;;;;;;5041178;28;20520;-56
2023/07/04 12:29:21;;;;;;;5.17;2.50;;;20.40;99.90;;;;;;5047241;28;20462;-55
2023/07/04 12:31:47;;;;;;;13.80;2.67;;;20.50;99.90;;;;;;5046379;28;20513;-54
2023/07/04 12:34:15;;;;;;;5.90;2.77;;;20.50;99.90;;;;;;5049983;28;20505;-54
2023/07/04 12:36:44;;;;;;;7.03;2.53;;;21.00;99.90;;;;;;5047614;28;20469;-54
2023/07/04 12:39:15;;;;;;;9.77;3.10;;;21.50;99.90;;;;;;5047124;28;20466;-55
2023/07/04 12:41:42;;;;;;;11.13;2.40;;;21.50;99.90;;;;;;5049816;28;20518;-55
2023/07/04 12:44:11;;;;;;;6.20;2.93;;;22.10;99.90;;;;;;5047642;28;20465;-52
2023/07/04 12:46:42;;;;;;;11.13;3.40;;;22.40;99.90;;;;;;5046267;28;20556;-52
2023/07/04 12:49:11;;;;;;;9.83;3.07;;;22.80;99.90;;;;;;5049422;28;20464;-53
2023/07/04 12:51:42;;;;;;;14.63;3.80;;;22.90;99.90;;;;;;5047711;28;20843;-51